Time;durP1;ratioP1;P1;durP2;ratioP2;P2;SDS_P1;SDS_P2;PMS_P1;PMS_P2;Temp;Humidity;BMP_temperature;BMP_pressure;BME280_temperature;BME280_humidity;BME280_pressure;Samples;Min_cycle;Max_cycle;Signal;HPM_P1;HPM_P2
2020/12/27 00:01:53;;;;;;;3.58;3.25;;;;;;;2.22;66.86;99960.72;10198647;29;20058;-72
2020/12/27 00:07:08;;;;;;;5.05;3.08;;;;;;;2.18;66.80;99938.16;10195093;29;20051;-72
2020/12/27 00:12:12;;;;;;;2.92;2.63;;;;;;;2.17;66.76;99931.22;10163187;29;20051;-72
2020/12/27 00:17:14;;;;;;;4.72;3.53;;;;;;;2.12;66.74;99906.03;10186829;29;20071;-72
2020/12/27 00:22:16;;;;;;;3.45;2.97;;;;;;;2.03;66.61;99910.94;10188657;29;20056;-71
2020/12/27 00:27:18;;;;;;;4.53;2.63;;;;;;;2.09;66.55;99892.22;10198260;29;20067;-71
2020/12/27 00:32:19;;;;;;;4.13;3.00;;;;;;;2.05;66.15;99870.50;10167348;29;20048;-70
2020/12/27 00:37:29;;;;;;;3.88;2.58;;;;;;;2.08;66.27;99864.25;10189811;29;20047;-71
2020/12/27 00:42:30;;;;;;;4.15;2.90;;;;;;;1.97;65.90;99851.69;10173214;29;20051;-71
2020/12/27 00:47:32;;;;;;;6.68;3.67;;;;;;;1.95;66.16;99840.41;10190982;29;20052;-71
2020/12/27 00:52:33;;;;;;;5.45;2.80;;;;;;;2.01;66.33;99813.88;10171904;29;20048;-71
2020/12/27 00:57:34;;;;;;;4.65;3.20;;;;;;;1.89;66.53;99785.59;10171352;29;20067;-72
2020/12/27 01:02:35;;;;;;;3.65;2.70;;;;;;;1.83;66.23;99767.53;10188363;29;20342;-71
2020/12/27 01:07:42;;;;;;;3.78;2.58;;;;;;;1.90;65.65;99761.06;10187573;29;20052;-71
2020/12/27 01:12:47;;;;;;;4.88;2.95;;;;;;;1.90;65.79;99759.28;10171145;29;20417;-70
2020/12/27 01:17:48;;;;;;;3.27;2.97;;;;;;;1.88;65.88;99752.44;10165449;29;20048;-72
2020/12/27 01:22:49;;;;;;;3.88;3.22;;;;;;;1.97;66.17;99746.69;10170135;29;20095;-71
2020/12/27 01:27:51;;;;;;;4.10;2.85;;;;;;;1.87;65.99;99708.72;10181457;29;20054;-71
2020/12/27 01:32:52;;;;;;;3.72;2.80;;;;;;;2.03;65.57;99701.72;10183491;29;20462;-72
2020/12/27 01:38:05;;;;;;;3.70;2.65;;;;;;;2.10;65.64;99697.84;10170879;29;20055;-71
2020/12/27 01:43:06;;;;;;;4.75;3.55;;;;;;;2.10;65.49;99679.47;10169705;29;20056;-72
2020/12/27 01:48:13;;;;;;;9.02;3.28;;;;;;;1.97;65.70;99657.44;10184736;29;20063;-71
2020/12/27 01:53:14;;;;;;;5.68;3.45;;;;;;;1.90;65.83;99629.81;10182081;29;20055;-71
2020/12/27 01:58:15;;;;;;;5.40;2.85;;;;;;;1.97;66.00;99635.56;10171851;29;20048;-71
2020/12/27 02:03:17;;;;;;;3.33;2.88;;;;;;;1.93;66.12;99621.78;10183111;29;20066;-70
2020/12/27 02:08:22;;;;;;;6.77;3.00;;;;;;;1.88;66.05;99605.44;10177546;28;20470;-71
2020/12/27 02:13:23;;;;;;;4.07;2.80;;;;;;;1.85;65.91;99590.69;10204169;29;20071;-71
2020/12/27 02:18:25;;;;;;;3.60;2.30;;;;;;;1.94;65.88;99573.59;10166229;29;20079;-71
2020/12/27 02:23:26;;;;;;;3.40;2.63;;;;;;;1.85;65.54;99584.63;10169156;29;20039;-70
2020/12/27 02:28:28;;;;;;;2.97;2.60;;;;;;;1.90;65.97;99582.56;10174214;29;20130;-71
2020/12/27 02:33:30;;;;;;;4.65;2.85;;;;;;;1.89;65.75;99586.13;10186527;29;20051;-71
2020/12/27 02:38:40;;;;;;;3.38;2.78;;;;;;;1.81;66.06;99562.91;10180867;29;20127;-72
2020/12/27 02:43:43;;;;;;;4.72;3.53;;;;;;;1.75;66.00;99548.34;10179311;29;20047;-71
2020/12/27 02:48:44;;;;;;;4.53;3.42;;;;;;;1.71;66.52;99552.09;10186760;29;20106;-70
2020/12/27 02:53:50;;;;;;;5.90;3.70;;;;;;;1.65;66.53;99541.94;10177507;29;20455;-71
2020/12/27 02:58:53;;;;;;;4.38;3.20;;;;;;;1.64;66.78;99518.41;10179327;29;20059;-71
2020/12/27 03:03:54;;;;;;;5.25;3.70;;;;;;;1.66;66.74;99485.91;10204199;29;20744;-71
2020/12/27 03:09:03;;;;;;;6.30;4.22;;;;;;;1.46;67.67;99471.28;10197597;29;20051;-71
2020/12/27 03:14:06;;;;;;;3.78;3.42;;;;;;;1.38;67.97;99470.84;10177509;29;20100;-71
2020/12/27 03:19:07;;;;;;;5.47;4.13;;;;;;;1.27;68.38;99445.22;10179264;28;20529;-70
2020/12/27 03:24:09;;;;;;;6.80;4.40;;;;;;;1.33;68.68;99426.50;10163542;29;20466;-71
2020/12/27 03:29:10;;;;;;;5.93;4.80;;;;;;;1.15;69.11;99401.31;10163316;29;20291;-71
2020/12/27 03:34:12;;;;;;;5.97;4.82;;;;;;;1.14;69.76;99389.13;10173104;29;20062;-71
2020/12/27 03:39:18;;;;;;;5.63;4.32;;;;;;;1.19;69.54;99402.84;10154683;29;20047;-71
2020/12/27 03:44:19;;;;;;;6.80;4.38;;;;;;;1.16;69.93;99403.03;10170910;29;20051;-72
2020/12/27 03:49:21;;;;;;;5.10;4.53;;;;;;;1.10;69.82;99371.91;10187846;29;20052;-71
2020/12/27 03:54:22;;;;;;;7.88;4.78;;;;;;;1.08;69.90;99371.13;10193499;29;20079;-71
2020/12/27 03:59:23;;;;;;;6.75;4.72;;;;;;;1.05;69.93;99354.66;10195040;29;20135;-72
2020/12/27 04:04:25;;;;;;;8.15;5.13;;;;;;;1.03;70.06;99350.41;10193443;29;20051;-72
2020/12/27 04:09:37;;;;;;;7.32;5.30;;;;;;;0.95;70.38;99332.50;10191853;29;20675;-71
2020/12/27 04:14:38;;;;;;;6.60;4.53;;;;;;;1.00;70.14;99335.69;10168883;29;20051;-72
2020/12/27 04:19:40;;;;;;;7.18;5.47;;;;;;;0.95;70.17;99298.44;10184909;29;20590;-71
2020/12/27 04:24:41;;;;;;;6.35;4.53;;;;;;;0.88;70.61;99273.50;10186588;29;20056;-71
2020/12/27 04:29:42;;;;;;;6.65;5.05;;;;;;;0.91;70.35;99285.59;10185900;29;20130;-71
2020/12/27 04:34:44;;;;;;;6.10;4.25;;;;;;;1.09;69.83;99270.59;10202544;29;20052;-71
2020/12/27 04:39:59;;;;;;;5.47;4.40;;;;;;;1.17;69.40;99237.78;10171652;29;20511;-72
2020/12/27 04:45:01;;;;;;;5.38;4.03;;;;;;;1.19;69.18;99235.06;10180619;29;20207;-71
2020/12/27 04:50:03;;;;;;;4.75;4.05;;;;;;;1.25;68.46;99203.25;10176593;29;20063;-70
2020/12/27 04:55:05;;;;;;;4.85;3.75;;;;;;;1.24;68.56;99191.06;10167387;29;20051;-71
2020/12/27 05:00:07;;;;;;;4.82;4.32;;;;;;;1.29;68.56;99154.09;10167465;29;20534;-72
2020/12/27 05:05:12;;;;;;;5.85;4.20;;;;;;;1.32;68.25;99152.13;10176806;29;20742;-71
2020/12/27 05:10:16;;;;;;;4.60;4.20;;;;;;;1.19;67.90;99141.53;10184407;28;20091;-72
2020/12/27 05:15:17;;;;;;;5.80;3.90;;;;;;;1.23;68.45;99142.19;10165538;29;20125;-71
2020/12/27 05:20:19;;;;;;;5.13;4.47;;;;;;;1.24;67.65;99128.16;10203393;28;20104;-73
2020/12/27 05:25:20;;;;;;;5.60;4.40;;;;;;;1.17;68.00;99129.44;10205771;28;20043;-72
2020/12/27 05:30:26;;;;;;;4.47;4.07;;;;;;;1.31;67.79;99118.97;10172268;28;20046;-72
2020/12/27 05:35:27;;;;;;;;;;;;;;;1.31;68.01;99092.75;10176303;28;20150;-73
2020/12/27 05:40:40;;;;;;;4.50;3.88;;;;;;;1.37;67.02;99088.94;10199311;29;19938;-73
2020/12/27 05:45:42;;;;;;;5.30;4.05;;;;;;;1.27;67.75;99070.28;10172684;29;20044;-71
2020/12/27 05:50:44;;;;;;;6.78;4.30;;;;;;;1.29;67.08;99060.56;10175242;29;20071;-71
2020/12/27 05:55:52;;;;;;;4.85;4.20;;;;;;;1.39;67.29;99064.28;10169711;28;20393;-71
2020/12/27 06:00:55;;;;;;;6.05;4.60;;;;;;;1.40;67.06;99065.97;10176290;29;20052;-72
2020/12/27 06:06:08;;;;;;;4.40;3.65;;;;;;;1.40;66.46;99044.16;10185726;29;20080;-73
2020/12/27 06:11:35;;;;;;;5.53;4.20;;;;;;;1.46;66.76;99027.22;10151080;29;20052;-74
2020/12/27 06:16:48;;;;;;;7.05;4.18;;;;;;;1.47;66.54;99014.00;10209699;28;20052;-72
2020/12/27 06:22:04;;;;;;;5.75;3.67;;;;;;;1.44;66.26;98976.63;10192479;29;20051;-74
2020/12/27 06:27:06;;;;;;;4.75;4.15;;;;;;;1.45;66.19;98994.03;10182997;29;20052;-72
2020/12/27 06:32:11;;;;;;;5.10;3.97;;;;;;;1.43;66.06;98975.78;10217494;29;20121;-72
2020/12/27 06:37:15;;;;;;;5.30;4.20;;;;;;;1.38;66.64;98956.84;10197481;29;20051;-72
2020/12/27 06:42:18;;;;;;;6.18;5.20;;;;;;;1.47;66.43;98934.47;10162475;29;20478;-71
2020/12/27 06:47:47;;;;;;;7.68;5.07;;;;;;;1.49;66.80;98922.09;10159885;29;20056;-71
2020/12/27 06:52:48;;;;;;;7.28;5.05;;;;;;;1.41;67.23;98896.34;10155246;29;20066;-71
2020/12/27 06:57:49;;;;;;;8.23;4.85;;;;;;;1.41;67.33;98894.59;10160707;28;20047;-72
2020/12/27 07:03:07;;;;;;;7.82;5.20;;;;;;;1.42;67.60;98912.00;10165833;29;20048;-71
2020/12/27 07:08:10;;;;;;;5.35;4.85;;;;;;;1.47;67.97;98910.84;10170220;29;20076;-71
2020/12/27 07:13:16;;;;;;;5.97;5.10;;;;;;;1.40;67.59;98887.66;10169115;29;20043;-71
2020/12/27 07:18:20;;;;;;;6.65;4.30;;;;;;;1.36;67.93;98875.69;10166850;29;20615;-69
2020/12/27 07:23:24;;;;;;;6.82;4.47;;;;;;;1.35;68.40;98842.56;10185882;29;20052;-69
2020/12/27 07:28:27;;;;;;;4.63;3.97;;;;;;;1.45;67.85;98831.47;10186677;29;20066;-73
2020/12/27 07:33:31;;;;;;;6.45;4.38;;;;;;;1.33;67.16;98833.91;10183593;29;20064;-73
2020/12/27 07:38:51;;;;;;;7.83;5.33;;;;;;;1.37;67.79;98824.94;10176516;29;20059;-73
2020/12/27 07:43:54;;;;;;;6.07;3.72;;;;;;;1.46;67.04;98806.91;10183057;29;20087;-72
2020/12/27 07:48:55;;;;;;;5.40;3.85;;;;;;;1.34;66.82;98793.66;10181231;29;20059;-72
2020/12/27 07:53:57;;;;;;;3.70;3.30;;;;;;;1.45;67.38;98784.25;10171516;29;20110;-73
2020/12/27 07:59:03;;;;;;;3.75;3.35;;;;;;;1.44;66.96;98766.81;10158049;29;20048;-71
2020/12/27 08:04:08;;;;;;;5.03;3.25;;;;;;;1.50;66.63;98745.44;10182908;29;20051;-72
2020/12/27 08:09:11;;;;;;;3.97;3.28;;;;;;;1.57;66.53;98715.22;10175437;29;20063;-73
2020/12/27 08:14:13;;;;;;;3.95;3.08;;;;;;;1.52;66.37;98699.00;10194114;29;20044;-74
2020/12/27 08:19:18;;;;;;;4.05;3.08;;;;;;;1.57;66.18;98681.97;10174962;29;20056;-73
2020/12/27 08:24:20;;;;;;;4.20;3.80;;;;;;;1.51;66.47;98668.44;10195002;29;20063;-72
2020/12/27 08:29:23;;;;;;;5.30;3.08;;;;;;;1.56;65.92;98658.47;10175755;28;20220;-72
2020/12/27 08:34:25;;;;;;;4.00;2.85;;;;;;;1.56;66.38;98646.22;10180899;29;20063;-71
2020/12/27 08:39:40;;;;;;;4.70;2.72;;;;;;;1.65;65.70;98644.75;10172599;29;20093;-71
2020/12/27 08:44:49;;;;;;;3.43;2.13;;;;;;;1.72;65.77;98627.59;10178623;29;20051;-71
2020/12/27 08:49:59;;;;;;;2.92;2.40;;;;;;;1.78;65.40;98618.47;10173649;29;20289;-72
2020/12/27 08:55:05;;;;;;;3.75;3.45;;;;;;;1.82;65.61;98611.22;10176115;29;20095;-71
2020/12/27 09:00:14;;;;;;;3.03;2.60;;;;;;;1.91;65.62;98605.34;10179105;29;20051;-70
2020/12/27 09:05:15;;;;;;;4.85;2.97;;;;;;;2.02;64.76;98594.91;10178456;29;20062;-71
2020/12/27 09:10:22;;;;;;;5.13;2.75;;;;;;;2.07;64.51;98570.94;10194395;29;20055;-75
2020/12/27 09:15:26;;;;;;;5.32;2.30;;;;;;;2.08;64.44;98555.06;10210598;29;20054;-73
2020/12/27 09:20:30;;;;;;;3.78;2.15;;;;;;;2.18;64.69;98546.53;10218160;29;20059;-72
2020/12/27 09:25:31;;;;;;;3.92;2.58;;;;;;;2.25;63.64;98496.09;10173056;29;20217;-73
2020/12/27 09:30:32;;;;;;;2.55;1.88;;;;;;;2.30;63.76;98487.88;10180026;29;20691;-72
2020/12/27 09:35:34;;;;;;;3.22;2.03;;;;;;;2.37;63.75;98491.75;10174129;29;20126;-70
2020/12/27 09:40:36;;;;;;;3.92;2.25;;;;;;;2.37;63.43;98483.84;10180745;29;20094;-70
2020/12/27 09:45:40;;;;;;;2.00;1.60;;;;;;;2.40;63.23;98478.38;10209597;29;20051;-71
2020/12/27 09:50:42;;;;;;;2.90;1.40;;;;;;;2.50;63.35;98488.19;10194753;29;20067;-70
2020/12/27 09:55:44;;;;;;;1.65;1.23;;;;;;;2.52;62.77;98489.72;10190646;29;20299;-70
2020/12/27 10:00:46;;;;;;;2.08;1.40;;;;;;;2.47;63.22;98460.34;10187019;29;20296;-72
2020/12/27 10:05:47;;;;;;;1.90;1.40;;;;;;;2.58;63.28;98443.78;10180008;29;20436;-72
2020/12/27 10:10:48;;;;;;;1.95;1.60;;;;;;;2.66;62.83;98404.63;10181159;29;20079;-73
2020/12/27 10:15:50;;;;;;;3.13;1.63;;;;;;;2.62;62.91;98393.50;10191996;28;20063;-72
2020/12/27 10:20:51;;;;;;;2.97;1.52;;;;;;;2.72;62.69;98377.88;10176494;29;20055;-74
2020/12/27 10:25:52;;;;;;;2.17;1.52;;;;;;;2.78;62.14;98348.50;10181581;29;20262;-75
2020/12/27 10:30:53;;;;;;;3.97;2.72;;;;;;;2.83;62.22;98337.59;10226677;28;20443;-71
2020/12/27 10:35:57;;;;;;;1.75;1.60;;;;;;;2.82;62.26;98310.50;10170769;29;20502;-70
2020/12/27 10:41:01;;;;;;;2.28;1.30;;;;;;;2.88;61.86;98310.97;10167663;29;20159;-71
2020/12/27 10:46:04;;;;;;;3.70;1.45;;;;;;;2.98;61.85;98304.84;10174608;29;20188;-71
2020/12/27 10:51:05;;;;;;;1.48;1.02;;;;;;;2.99;62.10;98269.72;10186023;29;20095;-69
2020/12/27 10:56:06;;;;;;;1.45;1.10;;;;;;;2.95;62.30;98243.81;10184156;29;20051;-72
2020/12/27 11:01:08;;;;;;;2.88;1.25;;;;;;;2.98;62.19;98230.41;10169037;29;20114;-72
2020/12/27 11:06:09;;;;;;;1.42;1.23;;;;;;;3.05;62.17;98217.59;10175522;29;20055;-74
2020/12/27 11:11:10;;;;;;;1.52;1.00;;;;;;;3.04;62.18;98187.84;10188083;29;20148;-73
2020/12/27 11:16:11;;;;;;;2.38;1.00;;;;;;;3.10;61.96;98200.50;10194704;28;20051;-74
2020/12/27 11:21:13;;;;;;;1.15;0.82;;;;;;;3.10;62.08;98158.44;10184729;29;20128;-74
2020/12/27 11:26:18;;;;;;;2.40;1.48;;;;;;;3.11;61.95;98170.63;10168921;29;20055;-73
2020/12/27 11:31:20;;;;;;;3.10;1.98;;;;;;;3.18;61.98;98132.34;10170133;29;20047;-72
2020/12/27 11:36:22;;;;;;;2.33;1.05;;;;;;;3.18;61.99;98115.72;10178321;29;20071;-75
2020/12/27 11:41:23;;;;;;;2.75;1.63;;;;;;;3.30;62.07;98104.19;10207949;23;20046;-67
2020/12/27 11:46:26;;;;;;;1.77;1.10;;;;;;;3.34;61.54;98094.22;10246323;28;20051;-65
2020/12/27 11:51:27;;;;;;;1.02;0.80;;;;;;;3.23;61.68;98065.38;10245644;28;20046;-65
2020/12/27 11:56:28;;;;;;;1.40;1.08;;;;;;;3.20;61.95;98061.22;10281659;28;20069;-66
2020/12/27 12:01:30;;;;;;;3.08;1.13;;;;;;;3.25;61.82;98052.94;10273105;28;20053;-65
2020/12/27 12:06:31;;;;;;;1.02;0.82;;;;;;;3.31;61.80;98032.19;10278180;28;20055;-66
2020/12/27 12:11:34;;;;;;;1.65;1.20;;;;;;;3.50;61.68;98031.47;10275581;28;20057;-65
2020/12/27 12:16:35;;;;;;;5.20;2.70;;;;;;;3.53;61.90;98014.59;10260581;28;20055;-63
2020/12/27 12:21:37;;;;;;;3.00;1.10;;;;;;;3.53;61.41;97998.78;10264099;28;20054;-64
2020/12/27 12:26:38;;;;;;;1.33;1.00;;;;;;;3.57;61.70;97979.13;10270520;28;20499;-67
2020/12/27 12:31:40;;;;;;;1.65;1.17;;;;;;;3.66;61.00;97965.19;10267115;28;20137;-67
2020/12/27 12:36:42;;;;;;;1.02;0.80;;;;;;;3.62;61.11;97924.31;10270480;28;20050;-68
2020/12/27 12:41:43;;;;;;;1.33;0.90;;;;;;;3.59;61.12;97910.59;10269372;28;20566;-67
2020/12/27 12:46:44;;;;;;;2.35;0.90;;;;;;;3.69;61.40;97912.28;10270456;28;20327;-66
2020/12/27 12:51:46;;;;;;;3.63;1.92;;;;;;;3.78;61.10;97897.44;10265102;28;20100;-67
2020/12/27 12:56:49;;;;;;;3.60;1.10;;;;;;;3.82;60.90;97890.94;10268908;28;20102;-66
2020/12/27 13:01:50;;;;;;;2.50;1.90;;;;;;;3.68;60.85;97844.84;10268237;28;20557;-65
2020/12/27 13:06:51;;;;;;;1.45;1.20;;;;;;;3.85;60.66;97853.00;10275888;28;20050;-66
2020/12/27 13:11:53;;;;;;;2.22;1.27;;;;;;;3.86;60.76;97837.06;10280451;28;20051;-66
2020/12/27 13:16:54;;;;;;;1.63;1.27;;;;;;;3.97;60.99;97815.03;10266065;28;20565;-66
2020/12/27 13:21:55;;;;;;;1.58;1.48;;;;;;;3.94;60.74;97785.53;10266508;28;20433;-66
2020/12/27 13:26:56;;;;;;;1.67;1.40;;;;;;;4.11;60.67;97781.31;10270459;28;20054;-63
2020/12/27 13:31:58;;;;;;;1.80;1.15;;;;;;;4.14;60.39;97739.72;10264502;28;20057;-63
2020/12/27 13:36:59;;;;;;;2.88;1.80;;;;;;;4.19;60.71;97711.19;10271356;28;20058;-65
2020/12/27 13:42:00;;;;;;;1.70;1.58;;;;;;;4.36;60.36;97717.47;10271007;28;20626;-64
2020/12/27 13:47:02;;;;;;;1.17;0.90;;;;;;;4.37;60.41;97686.72;10262317;28;20387;-67
2020/12/27 13:52:03;;;;;;;1.08;0.98;;;;;;;4.41;60.54;97680.16;10268294;28;20546;-65
2020/12/27 13:57:07;;;;;;;1.00;0.75;;;;;;;4.47;60.35;97679.56;10270921;28;20053;-65
2020/12/27 14:02:08;;;;;;;1.30;0.82;;;;;;;4.48;60.57;97646.97;10306490;28;20080;-65
2020/12/27 14:07:09;;;;;;;1.35;1.00;;;;;;;4.59;60.67;97640.66;10266205;28;20316;-65
2020/12/27 14:12:11;;;;;;;1.95;1.00;;;;;;;4.59;60.79;97612.53;10281575;28;20070;-66
2020/12/27 14:17:15;;;;;;;3.50;1.45;;;;;;;4.62;60.73;97595.56;10270339;28;20058;-70
2020/12/27 14:22:17;;;;;;;1.73;1.23;;;;;;;4.69;60.67;97593.16;10285107;28;20767;-68
2020/12/27 14:27:20;;;;;;;1.20;1.08;;;;;;;4.76;60.72;97576.59;10274994;28;20054;-67
2020/12/27 14:32:21;;;;;;;1.50;0.75;;;;;;;4.86;61.13;97559.84;10267662;28;20171;-68
2020/12/27 14:37:22;;;;;;;3.60;1.30;;;;;;;4.98;61.15;97540.16;10231670;28;20086;-67
2020/12/27 14:42:23;;;;;;;2.35;1.10;;;;;;;5.09;60.43;97515.38;10255500;28;20046;-65
2020/12/27 14:47:26;;;;;;;2.38;2.08;;;;;;;5.00;60.46;97492.56;10282287;28;20303;-66
2020/12/27 14:52:27;;;;;;;2.42;1.55;;;;;;;4.87;61.03;97474.53;10303743;28;20622;-66
2020/12/27 14:57:28;;;;;;;6.13;3.80;;;;;;;4.85;60.43;97448.34;10302514;28;20307;-68
2020/12/27 15:02:29;;;;;;;3.22;2.40;;;;;;;4.78;60.36;97432.31;10244214;28;20055;-66
2020/12/27 15:07:31;;;;;;;2.03;1.83;;;;;;;4.75;60.68;97450.25;10251278;28;20079;-67
2020/12/27 15:12:33;;;;;;;1.73;1.52;;;;;;;4.75;60.53;97461.59;10261822;28;20530;-66
2020/12/27 15:17:34;;;;;;;2.80;2.08;;;;;;;4.70;60.54;97437.53;10253298;28;20058;-65
2020/12/27 15:22:35;;;;;;;2.30;1.65;;;;;;;4.71;60.45;97436.53;10254086;28;20050;-64
2020/12/27 15:27:37;;;;;;;2.85;2.42;;;;;;;4.71;60.63;97443.63;10240570;28;20618;-66
2020/12/27 15:32:40;;;;;;;2.17;1.67;;;;;;;4.54;60.75;97397.91;10252944;28;20047;-65
2020/12/27 15:37:41;;;;;;;3.08;2.78;;;;;;;4.52;60.97;97390.16;10248642;28;20097;-65
2020/12/27 15:42:43;;;;;;;2.30;2.03;;;;;;;4.37;60.96;97352.22;10239791;28;20082;-66
2020/12/27 15:47:44;;;;;;;2.83;2.45;;;;;;;4.49;61.74;97358.88;10242498;28;20046;-66
2020/12/27 15:52:45;;;;;;;3.17;2.13;;;;;;;4.47;61.70;97347.63;10238875;28;20556;-68
2020/12/27 15:57:47;;;;;;;2.97;2.67;;;;;;;4.44;61.99;97324.25;10243673;28;20432;-66
2020/12/27 16:02:49;;;;;;;2.75;2.33;;;;;;;4.60;62.30;97312.97;10279000;28;20121;-66
2020/12/27 16:07:50;;;;;;;4.65;3.67;;;;;;;4.65;62.32;97309.88;10287723;28;20072;-64
2020/12/27 16:12:52;;;;;;;3.13;2.30;;;;;;;4.54;62.49;97285.44;10290878;28;20058;-64
2020/12/27 16:17:53;;;;;;;2.55;2.33;;;;;;;4.52;62.99;97289.22;10252573;28;20145;-64
2020/12/27 16:22:54;;;;;;;3.65;2.15;;;;;;;4.52;63.69;97255.81;10241046;28;20557;-64
2020/12/27 16:27:56;;;;;;;3.50;2.63;;;;;;;4.49;64.14;97242.97;10242463;28;20043;-64
2020/12/27 16:32:57;;;;;;;2.90;2.60;;;;;;;4.49;64.94;97240.31;10248690;28;20071;-63
2020/12/27 16:37:58;;;;;;;3.95;2.35;;;;;;;4.59;64.55;97232.28;10309114;28;20083;-66
2020/12/27 16:43:00;;;;;;;2.63;2.42;;;;;;;4.53;64.98;97232.91;10289419;28;20057;-67
2020/12/27 16:48:02;;;;;;;2.83;2.30;;;;;;;4.46;64.97;97200.28;10300753;28;20117;-69
2020/12/27 16:53:03;;;;;;;3.17;2.45;;;;;;;4.47;65.14;97199.31;10314230;28;20069;-70
2020/12/27 16:58:04;;;;;;;2.78;2.28;;;;;;;4.45;65.28;97188.13;10327057;28;20061;-63
2020/12/27 17:03:06;;;;;;;3.33;2.22;;;;;;;4.41;64.95;97166.53;10290288;28;20082;-64
2020/12/27 17:08:07;;;;;;;2.08;1.88;;;;;;;4.20;64.68;97099.34;10294349;28;20058;-63
2020/12/27 17:13:09;;;;;;;3.85;2.17;;;;;;;4.53;64.39;97138.09;10294227;28;20098;-67
2020/12/27 17:18:11;;;;;;;4.13;2.40;;;;;;;4.55;64.33;97126.41;10311393;28;20069;-63
2020/12/27 17:23:13;;;;;;;4.13;2.50;;;;;;;4.63;64.04;97127.41;10299439;28;20050;-64
2020/12/27 17:28:14;;;;;;;4.43;3.25;;;;;;;4.66;63.44;97103.38;10283773;28;20128;-63
2020/12/27 17:33:16;;;;;;;2.30;2.10;;;;;;;4.64;63.09;97092.16;10285825;28;20054;-64
2020/12/27 17:38:18;;;;;;;2.90;2.28;;;;;;;4.68;62.80;97082.94;10293411;28;20062;-64
2020/12/27 17:43:20;;;;;;;3.75;3.28;;;;;;;4.70;62.65;97070.41;10287165;28;20081;-64
2020/12/27 17:48:21;;;;;;;3.85;2.90;;;;;;;4.69;62.34;97063.53;10291981;28;20055;-64
2020/12/27 17:53:22;;;;;;;2.40;2.10;;;;;;;4.78;62.08;97067.81;10297939;28;20128;-64
2020/12/27 17:58:24;;;;;;;4.30;3.90;;;;;;;4.85;61.73;97052.13;10302291;28;20103;-65
2020/12/27 18:03:26;;;;;;;2.63;2.20;;;;;;;4.85;61.52;97026.63;10296245;28;20050;-64
2020/12/27 18:08:27;;;;;;;2.00;1.80;;;;;;;4.82;61.67;97020.84;10266894;28;20047;-65
2020/12/27 18:13:28;;;;;;;2.22;1.75;;;;;;;4.85;62.38;96995.00;10266048;28;20409;-66
2020/12/27 18:18:47;;;;;;;2.42;2.17;;;;;;;4.97;62.38;96990.22;10251000;28;20130;-64
2020/12/27 18:23:51;;;;;;;2.50;2.13;;;;;;;5.09;62.46;97001.22;10240090;28;20197;-67
2020/12/27 18:28:52;;;;;;;2.22;2.03;;;;;;;5.07;63.92;96997.91;10239201;28;20094;-64
2020/12/27 18:33:54;;;;;;;3.78;2.10;;;;;;;5.11;64.56;97005.31;10248837;23;20046;-72
2020/12/27 18:38:55;;;;;;;2.40;1.92;;;;;;;5.09;66.04;97006.50;10244991;28;20059;-71
2020/12/27 18:43:56;;;;;;;3.25;1.77;;;;;;;5.02;68.22;97002.88;10249363;28;20054;-72
2020/12/27 18:48:59;;;;;;;2.90;2.58;;;;;;;5.11;70.28;96978.94;10230584;28;20104;-71
2020/12/27 18:54:00;;;;;;;2.80;1.77;;;;;;;5.07;71.32;96971.56;10248945;28;20105;-69
2020/12/27 18:59:01;;;;;;;1.73;1.27;;;;;;;5.04;71.93;96956.06;10250358;28;20047;-70
2020/12/27 19:04:04;;;;;;;1.63;1.52;;;;;;;5.05;72.60;96947.19;10271239;28;20479;-69
2020/12/27 19:09:05;;;;;;;3.92;3.22;;;;;;;5.09;72.50;96936.13;10285734;28;20069;-69
2020/12/27 19:14:07;;;;;;;5.55;2.13;;;;;;;5.05;72.78;96928.72;10290419;28;20164;-70
2020/12/27 19:19:10;;;;;;;2.53;1.70;;;;;;;5.07;72.84;96929.38;10288444;28;20046;-70
2020/12/27 19:24:12;;;;;;;4.00;2.35;;;;;;;5.03;73.28;96917.50;10290210;28;20058;-69
2020/12/27 19:29:13;;;;;;;4.93;2.35;;;;;;;5.04;73.31;96908.63;10296431;28;20597;-70
2020/12/27 19:34:15;;;;;;;2.33;2.13;;;;;;;4.89;74.61;96888.22;10297814;28;20062;-71
2020/12/27 19:39:16;;;;;;;3.25;2.38;;;;;;;4.97;74.58;96892.69;10287594;28;20524;-70
2020/12/27 19:44:17;;;;;;;2.55;1.83;;;;;;;4.95;74.12;96874.41;10291712;28;20089;-71
2020/12/27 19:49:25;;;;;;;2.70;2.25;;;;;;;5.00;74.84;96878.31;10314796;28;20054;-71
2020/12/27 19:54:29;;;;;;;2.85;1.90;;;;;;;4.96;74.98;96860.22;10309966;28;20131;-71
2020/12/27 19:59:31;;;;;;;5.60;2.42;;;;;;;4.87;75.23;96865.69;10308361;28;20058;-72
2020/12/27 20:04:32;;;;;;;3.78;2.20;;;;;;;4.86;76.07;96856.94;10291077;28;20054;-72
2020/12/27 20:09:33;;;;;;;3.90;2.55;;;;;;;4.87;76.72;96861.22;10287727;28;20051;-71
2020/12/27 20:14:34;;;;;;;2.72;2.28;;;;;;;4.80;76.55;96851.56;10287353;28;20047;-71
2020/12/27 20:19:48;;;;;;;3.13;2.08;;;;;;;4.82;76.43;96858.31;10292951;28;20491;-71
2020/12/27 20:24:49;;;;;;;3.40;2.58;;;;;;;4.85;76.42;96857.97;10295323;28;20062;-72
2020/12/27 20:29:50;;;;;;;3.88;3.05;;;;;;;4.85;75.43;96857.13;10295677;28;20054;-71
2020/12/27 20:34:51;;;;;;;3.33;2.70;;;;;;;4.74;75.96;96847.78;10295038;28;20066;-72
2020/12/27 20:39:53;;;;;;;4.22;2.67;;;;;;;4.73;75.68;96854.06;10293748;28;20128;-72
2020/12/27 20:44:54;;;;;;;4.00;3.40;;;;;;;4.76;75.30;96848.44;10297339;28;20081;-71
2020/12/27 20:50:04;;;;;;;3.17;2.88;;;;;;;4.74;73.65;96845.13;10300945;28;20054;-70
2020/12/27 20:55:06;;;;;;;4.43;3.33;;;;;;;4.65;73.80;96840.91;10314215;28;20058;-71
2020/12/27 21:00:07;;;;;;;3.50;3.20;;;;;;;4.73;73.25;96843.53;10293800;28;20050;-70
2020/12/27 21:05:08;;;;;;;3.85;2.85;;;;;;;4.75;72.67;96836.25;10291687;28;20046;-69
2020/12/27 21:10:09;;;;;;;2.95;2.58;;;;;;;4.85;72.80;96825.50;10290866;28;20054;-71
2020/12/27 21:15:11;;;;;;;5.28;3.40;;;;;;;4.69;72.75;96814.03;10289892;28;20050;-70
2020/12/27 21:20:12;;;;;;;4.30;3.40;;;;;;;4.66;72.37;96813.56;10295068;28;20054;-71
2020/12/27 21:25:14;;;;;;;4.47;3.15;;;;;;;4.71;72.57;96811.22;10309772;28;20152;-72
2020/12/27 21:30:16;;;;;;;3.20;2.90;;;;;;;4.73;73.29;96801.34;10323595;28;20046;-72
2020/12/27 21:35:17;;;;;;;3.25;2.75;;;;;;;4.71;73.63;96792.78;10298346;28;20079;-70
2020/12/27 21:40:18;;;;;;;2.90;2.40;;;;;;;4.71;73.77;96792.78;10297038;28;20081;-71
2020/12/27 21:45:20;;;;;;;3.78;2.42;;;;;;;4.73;73.95;96781.09;10295862;28;20069;-70
2020/12/27 21:50:34;;;;;;;2.78;2.45;;;;;;;4.65;75.10;96780.31;10311897;28;20046;-71
2020/12/27 21:55:35;;;;;;;3.20;2.90;;;;;;;4.56;76.11;96785.63;10289609;28;20465;-71
2020/12/27 22:00:37;;;;;;;3.70;2.90;;;;;;;4.53;76.85;96779.84;10292102;28;20714;-71
2020/12/27 22:05:38;;;;;;;4.80;2.83;;;;;;;4.51;77.28;96780.03;10290572;28;20133;-70
2020/12/27 22:10:39;;;;;;;3.55;2.75;;;;;;;4.44;78.11;96771.16;10290697;28;20256;-70
2020/12/27 22:15:42;;;;;;;3.33;2.72;;;;;;;4.50;78.34;96767.84;10292367;28;20514;-70
2020/12/27 22:20:44;;;;;;;3.63;2.65;;;;;;;4.51;78.30;96776.56;10288745;28;20047;-70
2020/12/27 22:25:47;;;;;;;2.85;2.38;;;;;;;4.38;78.46;96766.56;10290721;28;20242;-71
2020/12/27 22:30:48;;;;;;;3.80;2.95;;;;;;;4.46;79.18;96753.38;10294403;28;20054;-71
2020/12/27 22:35:50;;;;;;;2.97;2.45;;;;;;;4.35;79.79;96757.19;10292091;28;20125;-71
2020/12/27 22:40:51;;;;;;;4.68;2.67;;;;;;;4.45;80.35;96751.72;10299533;28;20130;-70
2020/12/27 22:45:52;;;;;;;2.95;2.70;;;;;;;4.48;80.69;96767.19;10301386;28;20042;-71
2020/12/27 22:50:54;;;;;;;4.03;3.10;;;;;;;4.54;80.35;96763.88;10299877;28;20054;-70
2020/12/27 22:55:55;;;;;;;4.55;2.75;;;;;;;4.58;80.19;96744.09;10298546;28;20117;-71
2020/12/27 23:00:57;;;;;;;3.83;2.45;;;;;;;4.60;80.26;96739.47;10311238;28;20063;-70
2020/12/27 23:05:58;;;;;;;3.35;2.85;;;;;;;4.60;80.85;96747.38;10303773;28;20051;-71
2020/12/27 23:10:59;;;;;;;2.40;2.20;;;;;;;4.57;80.58;96739.81;10319480;28;20058;-73
2020/12/27 23:16:00;;;;;;;3.42;2.80;;;;;;;4.55;81.81;96739.19;10322205;28;20042;-71
2020/12/27 23:21:03;;;;;;;2.75;2.55;;;;;;;4.55;81.89;96733.91;10315032;28;20058;-70
2020/12/27 23:26:04;;;;;;;3.92;2.83;;;;;;;4.55;82.23;96733.91;10299126;28;20394;-70
2020/12/27 23:31:06;;;;;;;3.10;2.72;;;;;;;4.68;82.42;96730.72;10303528;28;20070;-70
2020/12/27 23:36:07;;;;;;;3.67;1.88;;;;;;;4.66;82.58;96722.16;10291130;28;20053;-70
2020/12/27 23:41:08;;;;;;;3.90;2.28;;;;;;;4.73;83.30;96723.13;10294466;28;20390;-71
2020/12/27 23:46:09;;;;;;;2.95;2.17;;;;;;;4.80;83.11;96723.25;10294050;28;20081;-70